createdAt,value
2023-01-18T00:01:59.917Z,8.45
2023-01-18T00:05:08.963Z,8.44
2023-01-18T00:08:19.036Z,8.48
2023-01-18T00:11:25.580Z,8.47
2023-01-18T00:14:32.185Z,8.33
2023-01-18T00:17:47.808Z,8.39
2023-01-18T00:20:55.627Z,8.29
2023-01-18T00:24:02.160Z,8.12
2023-01-18T00:27:10.489Z,8.01
2023-01-18T00:30:18.715Z,8.09
2023-01-18T00:33:25.043Z,8.13
2023-01-18T00:36:33.246Z,8.14
2023-01-18T00:39:41.001Z,8.17
2023-01-18T00:43:04.985Z,8.14
2023-01-18T00:46:13.489Z,8.31
2023-01-18T00:49:19.868Z,8.20
2023-01-18T00:52:27.632Z,8.24
2023-01-18T00:55:33.759Z,8.34
2023-01-18T00:58:39.991Z,8.36
2023-01-18T01:01:46.173Z,8.38
2023-01-18T01:05:09.984Z,8.23
2023-01-18T01:08:18.124Z,8.06
2023-01-18T01:11:24.513Z,7.80
2023-01-18T01:14:48.348Z,7.82
2023-01-18T01:18:12.578Z,7.97
2023-01-18T01:21:36.068Z,7.72
2023-01-18T01:25:00.997Z,7.72
2023-01-18T01:28:07.748Z,7.86
2023-01-18T01:31:16.167Z,7.80
2023-01-18T01:34:22.960Z,7.81
2023-01-18T01:37:29.503Z,7.87
2023-01-18T01:40:37.017Z,7.84
2023-01-18T01:43:46.860Z,7.75
2023-01-18T01:46:57.354Z,7.78
2023-01-18T01:50:10.871Z,7.67
2023-01-18T01:53:17.201Z,7.68
2023-01-18T01:56:25.008Z,7.86
2023-01-18T01:59:31.335Z,7.69
2023-01-18T02:02:38.684Z,7.69
2023-01-18T02:05:49.338Z,7.99
2023-01-18T02:08:55.284Z,8.08
2023-01-18T02:12:03.265Z,8.26
2023-01-18T02:15:10.997Z,8.20
2023-01-18T02:18:26.111Z,7.84
2023-01-18T02:21:39.294Z,8.11
2023-01-18T02:25:09.198Z,7.84
2023-01-18T02:28:18.579Z,7.75
2023-01-18T02:31:30.098Z,7.63
2023-01-18T02:34:44.444Z,7.58
2023-01-18T02:38:02.380Z,7.87
2023-01-18T02:41:14.368Z,7.67
2023-01-18T02:44:48.996Z,7.85
2023-01-18T02:47:56.776Z,7.72
2023-01-18T02:51:02.916Z,7.97
2023-01-18T02:54:10.981Z,7.73
2023-01-18T02:57:18.674Z,7.98
2023-01-18T03:00:27.770Z,7.90
2023-01-18T03:03:35.953Z,7.58
2023-01-18T03:06:48.366Z,7.54
2023-01-18T03:09:56.079Z,7.72
2023-01-18T03:13:10.082Z,7.85
2023-01-18T03:16:24.134Z,7.71
2023-01-18T03:19:59.444Z,7.88
2023-01-18T03:23:30.101Z,7.76
2023-01-18T03:26:41.023Z,7.84
2023-01-18T03:30:05.547Z,7.99
2023-01-18T03:33:31.871Z,7.88
2023-01-18T03:36:42.098Z,7.88
2023-01-18T03:39:52.677Z,7.77
2023-01-18T03:43:07.413Z,7.88
2023-01-18T03:46:16.467Z,7.87
2023-01-18T03:49:24.675Z,8.38
2023-01-18T03:52:38.121Z,8.30
2023-01-18T03:55:49.014Z,8.42
2023-01-18T03:58:59.688Z,8.50
2023-01-18T04:02:07.974Z,8.49
2023-01-18T04:05:16.850Z,8.59
2023-01-18T04:08:23.422Z,8.62
2023-01-18T04:11:30.124Z,8.54
2023-01-18T04:14:36.282Z,8.68
2023-01-18T04:17:42.619Z,8.65
2023-01-18T04:20:50.452Z,8.83
2023-01-18T04:23:56.789Z,8.85
2023-01-18T04:27:03.000Z,8.75
2023-01-18T04:30:10.751Z,8.76
2023-01-18T04:33:18.057Z,8.86
2023-01-18T04:36:26.084Z,8.88
2023-01-18T04:39:32.394Z,8.86
2023-01-18T04:42:38.588Z,9.01
2023-01-18T04:45:46.427Z,9.13
2023-01-18T04:48:53.589Z,9.15
2023-01-18T04:52:01.195Z,9.22
2023-01-18T04:55:08.776Z,9.08
2023-01-18T04:58:15.203Z,9.21
2023-01-18T05:01:22.666Z,9.17
2023-01-18T05:04:29.057Z,9.31
2023-01-18T05:07:39.333Z,9.19
2023-01-18T05:10:45.521Z,9.20
2023-01-18T05:13:52.047Z,9.24
2023-01-18T05:16:58.370Z,9.16
2023-01-18T05:20:06.450Z,9.25
2023-01-18T05:23:14.455Z,9.11
2023-01-18T05:26:23.659Z,9.15
2023-01-18T05:29:30.056Z,9.21
2023-01-18T05:32:37.070Z,9.10
2023-01-18T05:35:43.219Z,9.23
2023-01-18T05:38:50.716Z,9.14
2023-01-18T05:41:59.970Z,9.08
2023-01-18T05:45:07.312Z,9.12
2023-01-18T05:48:13.651Z,9.20
2023-01-18T05:51:19.894Z,9.27
2023-01-18T05:54:27.686Z,9.19
2023-01-18T05:57:34.194Z,9.28
2023-01-18T06:00:40.733Z,9.26
2023-01-18T06:03:46.766Z,9.28
2023-01-18T06:06:52.822Z,9.21
2023-01-18T06:10:00.798Z,9.22
2023-01-18T06:13:07.166Z,9.17
2023-01-18T06:16:13.738Z,9.21
2023-01-18T06:19:20.300Z,9.17
2023-01-18T06:22:26.649Z,9.18
2023-01-18T06:25:34.230Z,9.24
2023-01-18T06:28:40.607Z,9.24
2023-01-18T06:31:47.017Z,9.31
2023-01-18T06:34:53.067Z,9.39
2023-01-18T06:37:59.557Z,9.40
2023-01-18T06:41:07.617Z,9.32
2023-01-18T06:44:13.647Z,9.44
2023-01-18T06:47:20.912Z,9.38
2023-01-18T06:50:27.376Z,9.59
2023-01-18T06:53:35.512Z,9.53
2023-01-18T06:56:44.653Z,9.70
2023-01-18T06:59:53.439Z,9.61
2023-01-18T07:03:00.407Z,9.69
2023-01-18T07:06:07.719Z,9.68
2023-01-18T07:09:14.752Z,9.82
2023-01-18T07:12:23.440Z,9.84
2023-01-18T07:15:29.773Z,10.52
2023-01-18T07:18:36.275Z,10.12
2023-01-18T07:21:42.678Z,10.41
2023-01-18T07:24:48.906Z,10.42
2023-01-18T07:27:58.486Z,10.54
2023-01-18T07:31:06.453Z,10.39
2023-01-18T07:34:13.534Z,10.35
2023-01-18T07:37:19.840Z,10.48
2023-01-18T07:40:26.044Z,10.56
2023-01-18T07:43:34.536Z,10.26
2023-01-18T07:46:42.759Z,10.32
2023-01-18T07:49:48.863Z,10.29
2023-01-18T07:52:56.987Z,10.38
2023-01-18T07:56:04.603Z,10.35
2023-01-18T07:59:12.292Z,10.49
2023-01-18T08:02:18.881Z,10.17
2023-01-18T08:05:27.843Z,10.75
2023-01-18T08:08:34.456Z,10.67
2023-01-18T08:11:40.803Z,10.80
2023-01-18T08:14:48.374Z,10.67
2023-01-18T08:17:55.567Z,10.64
2023-01-18T08:21:02.191Z,10.57
2023-01-18T08:24:08.801Z,10.63
2023-01-18T08:27:16.822Z,10.87
2023-01-18T08:30:28.092Z,11.29
2023-01-18T08:33:38.213Z,10.99
2023-01-18T08:36:44.626Z,11.47
2023-01-18T08:39:50.831Z,11.07
2023-01-18T08:42:58.324Z,11.23
2023-01-18T08:46:06.223Z,11.53
2023-01-18T08:49:12.577Z,11.36
2023-01-18T08:52:18.879Z,11.87
2023-01-18T08:55:25.187Z,11.75
2023-01-18T08:58:33.277Z,12.62
2023-01-18T09:01:41.065Z,12.12
2023-01-18T09:04:48.765Z,12.58
2023-01-18T09:07:55.875Z,12.76
2023-01-18T09:11:03.859Z,12.53
2023-01-18T09:14:09.970Z,12.53
2023-01-18T09:17:19.363Z,13.06
2023-01-18T09:20:26.123Z,12.50
2023-01-18T09:23:32.700Z,12.74
2023-01-18T09:26:38.888Z,12.75
2023-01-18T09:29:47.197Z,12.36
2023-01-18T09:32:54.839Z,12.87
2023-01-18T09:40:55.440Z,13.14
2023-01-18T09:44:07.035Z,13.41
2023-01-18T09:47:18.174Z,13.06
2023-01-18T09:50:26.251Z,13.32
2023-01-18T09:53:54.416Z,12.87
2023-01-18T09:57:07.052Z,13.43
2023-01-18T10:00:21.752Z,13.56
2023-01-18T10:03:35.334Z,13.95
2023-01-18T10:06:49.195Z,13.79
2023-01-18T10:09:57.593Z,13.59
2023-01-18T10:13:25.075Z,13.75
2023-01-18T10:16:33.058Z,13.84
2023-01-18T10:19:40.372Z,14.16
2023-01-18T10:22:52.941Z,13.97
2023-01-18T10:26:04.112Z,14.03
2023-01-18T10:29:26.624Z,13.77
2023-01-18T10:32:36.470Z,13.83
2023-01-18T10:35:48.315Z,13.97
2023-01-18T10:39:01.636Z,14.39
2023-01-18T10:42:21.811Z,13.36
2023-01-18T10:45:30.542Z,14.11
2023-01-18T10:48:38.906Z,13.47
2023-01-18T10:51:46.432Z,13.13
2023-01-18T10:54:58.140Z,13.11
2023-01-18T10:58:04.098Z,12.90
2023-01-18T11:01:16.694Z,12.86
2023-01-18T11:04:26.062Z,13.27
2023-01-18T11:07:32.396Z,13.04
2023-01-18T11:10:41.639Z,13.16
2023-01-18T11:13:50.845Z,12.91
2023-01-18T11:17:02.337Z,12.64
2023-01-18T11:20:16.974Z,12.61
2023-01-18T11:23:26.696Z,12.85
2023-01-18T11:26:34.571Z,12.73
2023-01-18T11:29:45.267Z,13.04
2023-01-18T11:32:53.015Z,13.53
2023-01-18T11:36:01.216Z,13.39
2023-01-18T11:39:26.961Z,13.37
2023-01-18T11:42:37.942Z,13.10
2023-01-18T11:45:53.629Z,12.81
2023-01-18T11:49:08.638Z,13.07
2023-01-18T11:52:25.064Z,12.87
2023-01-18T11:55:36.790Z,12.84
2023-01-18T11:58:45.381Z,12.61
2023-01-18T12:02:22.312Z,12.85
2023-01-18T12:05:39.459Z,12.97
2023-01-18T12:08:57.659Z,12.70
2023-01-18T12:12:19.944Z,12.63
2023-01-18T12:15:45.915Z,12.62
2023-01-18T12:19:18.676Z,12.43
2023-01-18T12:22:46.443Z,12.30
2023-01-18T12:26:13.109Z,12.31
2023-01-18T12:29:40.947Z,12.40
2023-01-18T12:33:02.408Z,12.46
2023-01-18T12:36:30.251Z,12.30
2023-01-18T12:39:56.967Z,12.23
2023-01-18T12:43:18.342Z,12.16
2023-01-18T12:46:29.015Z,11.92
2023-01-18T12:49:41.539Z,11.63
2023-01-18T12:52:52.436Z,11.47
2023-01-18T12:56:07.450Z,11.40
2023-01-18T12:59:19.076Z,11.35
2023-01-18T13:02:33.355Z,11.45
2023-01-18T13:05:52.572Z,11.42
2023-01-18T13:09:03.910Z,11.29
2023-01-18T13:12:10.849Z,11.51
2023-01-18T13:15:42.353Z,11.51
2023-01-18T13:18:55.947Z,11.61
2023-01-18T13:22:15.072Z,11.61
2023-01-18T13:25:33.674Z,11.78
2023-01-18T13:28:40.101Z,11.80
2023-01-18T13:31:48.113Z,11.82
2023-01-18T13:35:19.504Z,11.89
2023-01-18T13:38:40.943Z,12.01
2023-01-18T13:42:09.274Z,11.96
2023-01-18T13:45:19.387Z,11.96
2023-01-18T13:48:47.766Z,11.84
2023-01-18T13:51:54.724Z,12.15
2023-01-18T13:55:18.153Z,12.03
2023-01-18T13:58:28.080Z,11.90
2023-01-18T14:01:37.273Z,11.93
2023-01-18T14:04:43.757Z,11.97
2023-01-18T14:07:53.199Z,11.84
2023-01-18T14:11:05.632Z,11.75
2023-01-18T14:14:28.375Z,12.04
2023-01-18T14:17:41.705Z,11.83
2023-01-18T14:21:16.562Z,11.94
2023-01-18T14:24:55.609Z,11.92
2023-01-18T14:28:10.325Z,11.78
2023-01-18T14:31:21.092Z,11.78
2023-01-18T14:34:38.098Z,11.75
2023-01-18T14:37:44.516Z,11.82
2023-01-18T14:40:53.722Z,11.78
2023-01-18T14:44:01.778Z,11.64
2023-01-18T14:47:23.493Z,11.55
2023-01-18T14:50:34.567Z,11.57
2023-01-18T14:53:47.468Z,11.52
2023-01-18T14:57:02.173Z,11.49
2023-01-18T15:00:18.573Z,11.56
2023-01-18T15:03:27.635Z,11.51
2023-01-18T15:06:40.072Z,11.51
2023-01-18T15:09:47.861Z,11.42
2023-01-18T15:12:57.812Z,11.48
2023-01-18T15:16:07.740Z,11.44
2023-01-18T15:19:18.405Z,11.41
2023-01-18T15:22:30.671Z,11.47
2023-01-18T15:25:37.230Z,11.49
2023-01-18T15:28:43.437Z,11.43
2023-01-18T15:31:53.527Z,11.48
2023-01-18T15:35:01.283Z,11.48
2023-01-18T15:38:07.598Z,11.50
2023-01-18T15:41:16.113Z,11.48
2023-01-18T15:44:49.251Z,11.44
2023-01-18T15:47:58.798Z,11.48
2023-01-18T15:51:11.162Z,11.48
2023-01-18T15:54:20.852Z,11.46
2023-01-18T15:57:27.729Z,11.43
2023-01-18T16:00:41.228Z,11.38
2023-01-18T16:03:59.910Z,11.46
2023-01-18T16:07:36.475Z,11.41
2023-01-18T16:10:50.124Z,11.39
2023-01-18T16:13:59.183Z,11.41
2023-01-18T16:17:07.701Z,11.44
2023-01-18T16:20:18.030Z,11.38
2023-01-18T16:23:25.611Z,11.38
2023-01-18T16:26:32.764Z,11.34
2023-01-18T16:29:45.094Z,11.36
2023-01-18T16:32:51.393Z,11.34
2023-01-18T16:35:59.211Z,11.31
2023-01-18T16:39:05.545Z,11.24
2023-01-18T16:42:13.255Z,11.29
2023-01-18T16:45:19.603Z,11.33
2023-01-18T16:48:28.233Z,11.30
2023-01-18T16:51:36.281Z,11.29
2023-01-18T16:54:43.919Z,11.32
2023-01-18T16:57:51.712Z,11.24
2023-01-18T17:01:03.273Z,11.20
2023-01-18T17:04:11.678Z,11.27
2023-01-18T17:07:19.196Z,11.21
2023-01-18T17:10:31.906Z,11.22
2023-01-18T17:13:38.208Z,11.14
2023-01-18T17:16:45.221Z,11.07
2023-01-18T17:19:52.098Z,11.10
2023-01-18T17:23:03.611Z,11.06
2023-01-18T17:26:14.212Z,11.18
2023-01-18T17:29:22.149Z,11.13
2023-01-18T17:35:39.796Z,11.15
2023-01-18T17:38:47.355Z,11.09
2023-01-18T17:41:53.394Z,11.05
2023-01-18T17:45:03.946Z,11.06
2023-01-18T17:48:10.311Z,11.00
2023-01-18T17:51:16.631Z,11.06
2023-01-18T17:54:24.460Z,11.04
2023-01-18T17:57:30.774Z,10.99
2023-01-18T18:00:37.281Z,11.05
2023-01-18T18:03:48.047Z,10.90
2023-01-18T18:06:58.539Z,10.87
2023-01-18T18:10:06.423Z,10.89
2023-01-18T18:13:12.717Z,10.77
2023-01-18T18:16:19.433Z,10.78
2023-01-18T18:19:25.985Z,10.73
2023-01-18T18:22:32.544Z,10.80
2023-01-18T18:25:40.321Z,10.80
2023-01-18T18:28:46.441Z,10.88
2023-01-18T18:31:53.032Z,10.93
2023-01-18T18:34:59.442Z,10.83
2023-01-18T18:38:05.767Z,10.81
2023-01-18T18:41:13.759Z,10.89
2023-01-18T18:44:20.445Z,10.90
2023-01-18T18:47:27.161Z,10.95
2023-01-18T18:50:33.587Z,10.90
2023-01-18T18:53:40.224Z,10.95
2023-01-18T18:56:48.772Z,10.92
2023-01-18T18:59:55.542Z,10.96
2023-01-18T19:03:02.917Z,10.73
2023-01-18T19:06:09.870Z,10.98
2023-01-18T19:09:16.295Z,10.96
2023-01-18T19:12:23.841Z,11.00
2023-01-18T19:15:30.033Z,11.00
2023-01-18T19:18:37.198Z,10.99
2023-01-18T19:21:43.516Z,11.04
2023-01-18T19:24:49.849Z,11.07
2023-01-18T19:27:57.379Z,10.99
2023-01-18T19:31:05.657Z,10.99
2023-01-18T19:34:12.298Z,10.96
2023-01-18T19:37:18.767Z,10.93
2023-01-18T19:40:24.998Z,10.96
2023-01-18T19:43:34.442Z,10.84
2023-01-18T19:46:40.558Z,10.98
2023-01-18T19:49:46.705Z,10.96
2023-01-18T19:52:52.982Z,10.96
2023-01-18T19:56:06.919Z,10.98
2023-01-18T19:59:15.745Z,10.92
2023-01-18T20:02:22.685Z,11.02
2023-01-18T20:05:29.267Z,11.00
2023-01-18T20:08:35.791Z,10.95
2023-01-18T20:11:41.959Z,10.98
2023-01-18T20:14:50.215Z,11.10
2023-01-18T20:17:56.264Z,11.05
2023-01-18T20:21:06.699Z,10.97
2023-01-18T20:24:13.159Z,10.99
2023-01-18T20:27:19.905Z,10.96
2023-01-18T20:30:27.690Z,10.86
2023-01-18T20:33:35.411Z,11.04
2023-01-18T20:36:41.361Z,11.00
2023-01-18T20:39:47.538Z,10.95
2023-01-18T20:42:54.204Z,10.85
2023-01-18T20:46:02.922Z,11.10
2023-01-18T20:49:09.285Z,11.15
2023-01-18T20:52:15.629Z,11.05
2023-01-18T20:55:22.230Z,11.11
2023-01-18T20:58:29.448Z,11.07
2023-01-18T21:01:37.209Z,11.01
2023-01-18T21:04:43.729Z,11.06
2023-01-18T21:07:49.827Z,11.02
2023-01-18T21:10:56.380Z,11.03
2023-01-18T21:14:04.152Z,11.00
2023-01-18T21:17:12.034Z,11.07
2023-01-18T21:20:18.690Z,11.01
2023-01-18T21:23:27.189Z,11.09
2023-01-18T21:26:33.959Z,11.05
2023-01-18T21:29:40.583Z,11.11
2023-01-18T21:32:48.997Z,11.08
2023-01-18T21:35:56.217Z,11.08
2023-01-18T21:39:03.032Z,11.16
2023-01-18T21:42:28.674Z,11.23
2023-01-18T21:45:53.010Z,11.01
2023-01-18T21:49:04.462Z,10.97
2023-01-18T21:52:28.431Z,10.89
2023-01-18T21:55:35.556Z,10.92
2023-01-18T21:58:54.173Z,10.90
2023-01-18T22:02:00.808Z,10.89
2023-01-18T22:05:09.989Z,10.87
2023-01-18T22:08:16.484Z,11.01
2023-01-18T22:11:22.681Z,11.09
2023-01-18T22:14:29.066Z,11.08
2023-01-18T22:17:35.308Z,11.12
2023-01-18T22:20:42.795Z,11.18
2023-01-18T22:23:49.432Z,11.21
2023-01-18T22:26:55.567Z,11.25
2023-01-18T22:30:02.197Z,11.27
2023-01-18T22:33:08.497Z,11.33
2023-01-18T22:36:16.930Z,11.27
2023-01-18T22:39:23.306Z,11.38
2023-01-18T22:42:30.229Z,11.22
2023-01-18T22:45:36.595Z,11.25
2023-01-18T22:48:43.244Z,11.28
2023-01-18T22:51:50.545Z,11.30
2023-01-18T22:54:59.357Z,11.17
2023-01-18T22:58:06.018Z,11.26
2023-01-18T23:01:16.812Z,11.18
2023-01-18T23:04:24.414Z,11.31
2023-01-18T23:07:34.671Z,11.25
2023-01-18T23:10:41.306Z,11.24
2023-01-18T23:14:10.231Z,11.14
2023-01-18T23:17:34.475Z,11.22
2023-01-18T23:20:40.943Z,11.13
2023-01-18T23:23:48.515Z,11.18
2023-01-18T23:26:54.862Z,11.13
2023-01-18T23:30:02.638Z,11.07
2023-01-18T23:33:09.080Z,10.96
2023-01-18T23:36:15.644Z,11.07
2023-01-18T23:39:41.218Z,11.10
2023-01-18T23:43:04.875Z,10.98
2023-01-18T23:46:28.819Z,11.06
2023-01-18T23:49:52.718Z,10.92
2023-01-18T23:53:18.773Z,10.93
2023-01-18T23:56:29.035Z,10.84
2023-01-18T23:59:42.352Z,10.88
